Galeão - Antônio Carlos Jobim International Airport
SBGL : rendu visible

Aérodrome :











RETROUVEZ-NOUS SUR...

 
LOGIN :

S'inscrire | Disclaimer

   EN    FR    IT 

 









Légende :    VFR   VFR Marginal   IFR   IFR Intensif   IFR Très Intensif
Visi : 
Plafond : 
>= 8 km
>= 3000ft
5 à 8 km
1000 à 3000 ft
1500m à 5 km
500 à 1000 ft
800 à 1500m
200 à 500 ft
< 800m
< 200 ft
Symboles :   Orages  Brouillard  Fortes neiges  Fortes précipitations  Vent > 20 kt






- Altitude de l'aérodrome : 28 ft
- Code IATA : GIG


SBGL - Galeão - Antônio Carlos Jobim International

DERNIER METAR :
  • 090700Z 26006KT 6000 -DZ FEW008 BKN030 OVC040 20/19 Q1014

METARs EXPIRÉS :
  • 090600Z 31006KT 9999 FEW030 BKN050 BKN060 21/19 Q1015
  • 090500Z 31007KT 9999 FEW007 SCT030 OVC085 21/19 Q1015

TAF TAF SBGL
Valide du 09 à 06h jusqu'au 10 à 12h UTC


090300Z 0906/1012 33005KT 9000 FEW013 BKN018 OVC023 TN22/0909Z TX28/0916Z
BECMG 0906/0908 19008KT 6000 SHRA BKN009 OVC022
BECMG 0909/0911 17005KT 4000 DZ BKN013 BKN020
BECMG 0915/0917 13008KT 8000 SHRA SCT025 SCT045
BECMG 0919/0921 19008KT FEW020 BKN030
BECMG 1000/1002 13005KT 9000 FEW020
BECMG 1002/1004 29005KT 8000 SCT020
BECMG 1010/1012 30005KT 8000 FEW020 RMK PAY



MET'MAP, la Météo Aéronautique d'un coup d'oeil ! - Copyright ORBIFLY Décembre 2007 - Disclaimer

ORBIFLY MET'MAP TEAM :

Programmation & Développement : Alexandra Zaïnal
Sur une idée originale de : Baudouin d'Aumeries
Assistance à la programmation : Marc-Olivier Méhu
Soutien technique & logistique : Manuel Goepfert

Contact : metmap@orbifly.com




SOURCES & CREDITS :

   NOAA       Earth
Advisory